createdAt,value
2023-04-14T09:17:19.707Z,0.50
2023-04-14T09:18:19.662Z,0.50
2023-04-14T09:19:19.716Z,0.50
2023-04-14T09:20:38.898Z,0.50
2023-04-14T09:21:29.645Z,0.50
2023-04-14T09:22:20.665Z,0.50
2023-04-14T09:23:19.626Z,0.50
2023-04-14T09:24:20.325Z,0.50
2023-04-14T09:25:19.605Z,0.50
2023-04-14T09:26:20.614Z,0.50
2023-04-14T09:27:20.382Z,0.50
2023-04-14T09:28:19.998Z,0.50
2023-04-14T09:29:20.331Z,0.50
2023-04-14T09:30:19.716Z,0.50
2023-04-14T09:31:19.617Z,0.49
2023-04-14T09:32:21.347Z,0.45
2023-04-14T09:34:21.801Z,0.34
2023-04-14T09:35:20.253Z,0.34
2023-04-14T09:36:20.297Z,0.34
2023-04-14T09:37:23.798Z,0.34
2023-04-14T09:38:20.537Z,0.34
2023-04-14T09:39:21.345Z,0.34
2023-04-14T09:40:20.358Z,0.34
2023-04-14T09:41:23.300Z,0.34
2023-04-14T09:42:20.266Z,0.34
2023-04-14T09:43:19.564Z,0.34
2023-04-14T09:44:20.345Z,0.34
2023-04-14T09:45:19.652Z,0.34
2023-04-14T09:46:20.444Z,0.34
2023-04-14T09:47:19.452Z,0.34
2023-04-14T09:48:19.441Z,0.34
2023-04-14T09:49:20.259Z,0.34
2023-04-14T09:50:19.414Z,0.34
2023-04-14T09:51:19.410Z,0.38
2023-04-14T09:52:19.475Z,0.45
2023-04-14T09:53:20.265Z,0.51
2023-04-14T09:54:19.394Z,0.51
2023-04-14T09:55:19.475Z,0.50
2023-04-14T09:56:19.399Z,0.50
2023-04-14T09:57:19.374Z,0.50
2023-04-14T09:58:19.374Z,0.50
2023-04-14T09:59:22.302Z,0.50
2023-04-14T10:00:21.264Z,0.51
2023-04-14T10:01:19.412Z,0.51
2023-04-14T10:02:20.561Z,0.49
2023-04-14T10:03:20.481Z,0.48
2023-04-14T10:04:19.948Z,0.48
2023-04-14T10:05:20.326Z,0.50
2023-04-14T10:06:19.324Z,0.48
2023-04-14T10:07:19.322Z,0.50
2023-04-14T10:08:19.338Z,0.51
2023-04-14T10:09:19.311Z,0.49
2023-04-14T10:10:19.317Z,0.50
2023-04-14T10:11:19.310Z,0.50
2023-04-14T10:12:19.295Z,0.50
2023-04-14T10:13:19.292Z,0.50
2023-04-14T10:14:19.366Z,0.50
2023-04-14T10:15:19.278Z,0.51
2023-04-14T10:16:19.799Z,0.50
2023-04-14T10:17:19.825Z,0.49
2023-04-14T10:18:19.297Z,0.50
2023-04-14T10:19:19.246Z,0.51
2023-04-14T10:20:19.387Z,0.50
2023-04-14T10:21:19.340Z,0.50
2023-04-14T10:22:19.411Z,0.51
2023-04-14T10:23:19.472Z,0.50
2023-04-14T10:24:19.520Z,0.50
2023-04-14T10:25:19.589Z,0.50
2023-04-14T10:26:19.600Z,0.51
2023-04-14T10:27:19.618Z,0.50
2023-04-14T10:28:19.611Z,0.50
2023-04-14T10:29:19.640Z,0.51
2023-04-14T10:30:19.630Z,0.50
2023-04-14T10:31:19.878Z,0.50
2023-04-14T10:32:19.649Z,0.50
2023-04-14T10:33:19.624Z,0.50
2023-04-14T10:34:19.642Z,0.50
2023-04-14T10:35:19.666Z,0.51
2023-04-14T10:36:19.675Z,0.51
2023-04-14T10:37:19.703Z,0.49
2023-04-14T10:38:19.715Z,0.50
2023-04-14T10:39:19.738Z,0.50
2023-04-14T10:40:20.985Z,0.51
2023-04-14T10:41:19.856Z,0.50
2023-04-14T10:42:19.887Z,0.51
2023-04-14T10:43:19.922Z,0.50
2023-04-14T10:44:19.948Z,0.50
2023-04-14T10:45:19.983Z,0.51
2023-04-14T10:46:20.043Z,0.50
2023-04-14T10:47:20.115Z,0.50
2023-04-14T10:48:20.087Z,0.50
2023-04-14T10:49:20.133Z,0.50
2023-04-14T10:50:20.149Z,0.50
2023-04-14T10:51:20.365Z,0.50
2023-04-14T10:52:20.244Z,0.52
2023-04-14T10:53:20.275Z,0.51
2023-04-14T10:54:20.342Z,0.52
2023-04-14T10:55:20.410Z,0.50
2023-04-14T10:56:20.431Z,0.53
2023-04-14T10:57:20.445Z,0.52
2023-04-14T10:58:20.517Z,0.51
2023-04-14T10:59:20.537Z,0.51
2023-04-14T11:00:20.650Z,0.50
2023-04-14T11:01:20.692Z,0.51
2023-04-14T11:02:20.759Z,0.50
2023-04-14T11:03:20.829Z,0.51
2023-04-14T11:04:20.883Z,0.50
2023-04-14T11:05:20.819Z,0.50
2023-04-14T11:06:20.880Z,0.50
2023-04-14T11:07:20.923Z,0.50
2023-04-14T11:08:20.964Z,0.51
2023-04-14T11:09:21.071Z,0.51
2023-04-14T11:10:21.047Z,0.50
2023-04-14T11:11:21.086Z,0.50
2023-04-14T11:12:21.131Z,0.50
2023-04-14T11:13:21.184Z,0.52
2023-04-14T11:14:21.216Z,0.51
2023-04-14T11:15:21.276Z,0.50
2023-04-14T11:16:21.340Z,0.50
2023-04-14T11:17:22.056Z,0.50
2023-04-14T11:18:21.508Z,0.50
2023-04-14T11:19:21.433Z,0.50
2023-04-14T11:20:21.493Z,0.51
2023-04-14T11:21:21.537Z,0.50
2023-04-14T11:22:21.574Z,0.51
2023-04-14T11:23:21.657Z,0.50
2023-04-14T11:24:21.681Z,0.50
2023-04-14T11:25:24.585Z,0.50
2023-04-14T11:26:21.718Z,0.51
2023-04-14T11:27:21.714Z,0.51
2023-04-14T11:28:21.715Z,0.50
2023-04-14T11:29:21.707Z,0.51
2023-04-14T11:30:21.714Z,0.51
2023-04-14T11:31:23.342Z,0.52
2023-04-14T11:32:21.711Z,0.53
2023-04-14T11:33:21.673Z,0.53
2023-04-14T11:34:21.666Z,0.53
2023-04-14T11:35:21.662Z,0.53
2023-04-14T11:36:21.659Z,0.52
2023-04-14T11:37:22.831Z,0.50
2023-04-14T11:38:21.635Z,0.50
2023-04-14T11:39:21.633Z,0.50
2023-04-14T11:40:21.638Z,0.50
2023-04-14T11:41:21.625Z,0.50
2023-04-14T11:42:21.637Z,0.50
2023-04-14T11:43:22.821Z,0.51
2023-04-14T11:44:22.467Z,0.51
2023-04-14T11:45:21.762Z,0.51
2023-04-14T11:46:21.781Z,0.51
2023-04-14T11:47:21.822Z,0.51
2023-04-14T11:48:21.884Z,0.50
2023-04-14T11:49:22.289Z,0.50
2023-04-14T11:50:21.945Z,0.52
2023-04-14T11:51:21.996Z,0.51
2023-04-14T11:52:22.060Z,0.51
2023-04-14T11:53:22.102Z,0.52
2023-04-14T11:54:22.195Z,0.50
2023-04-14T11:55:22.892Z,0.49
2023-04-14T11:56:22.281Z,0.50
2023-04-14T11:57:22.334Z,0.52
2023-04-14T11:58:22.387Z,0.52
2023-04-14T11:59:22.447Z,0.53
2023-04-14T12:00:22.501Z,0.51
2023-04-14T12:01:22.557Z,0.52
2023-04-14T12:02:22.896Z,0.53
2023-04-14T12:03:22.883Z,0.52
2023-04-14T12:04:22.911Z,0.53
2023-04-14T12:05:22.932Z,0.53
2023-04-14T12:06:22.876Z,0.52
2023-04-14T12:07:22.937Z,0.51
2023-04-14T12:08:22.968Z,0.51
2023-04-14T12:09:23.027Z,0.51
2023-04-14T12:10:23.158Z,0.51
2023-04-14T12:11:23.128Z,0.52
2023-04-14T12:12:23.156Z,0.50
2023-04-14T12:13:23.173Z,0.50
2023-04-14T12:14:23.185Z,0.50
2023-04-14T12:15:23.193Z,0.50
2023-04-14T12:16:23.239Z,0.50
2023-04-14T12:17:23.211Z,0.50
2023-04-14T12:18:23.447Z,0.50
2023-04-14T12:19:23.199Z,0.51
2023-04-14T12:20:23.203Z,0.50
2023-04-14T12:21:23.205Z,0.50
2023-04-14T12:22:23.416Z,0.51
2023-04-14T12:23:23.226Z,0.52
2023-04-14T12:24:23.233Z,0.50
2023-04-14T12:25:23.247Z,0.51
2023-04-14T12:26:23.253Z,0.54
2023-04-14T12:27:23.269Z,0.55
2023-04-14T12:28:23.300Z,0.55
2023-04-14T12:29:23.309Z,0.57
2023-04-14T12:30:23.313Z,0.57
2023-04-14T12:31:23.379Z,0.58
2023-04-14T12:32:23.369Z,0.60
2023-04-14T12:33:23.339Z,0.60
2023-04-14T12:34:23.335Z,0.62
2023-04-14T12:35:23.364Z,0.60
2023-04-14T12:36:25.581Z,0.59
2023-04-14T12:37:24.352Z,0.59
2023-04-14T12:38:23.339Z,0.59
2023-04-14T12:39:23.326Z,0.59
2023-04-14T12:40:23.326Z,0.60
2023-04-14T12:41:23.358Z,0.60
2023-04-14T12:42:23.305Z,0.59
2023-04-14T12:43:23.302Z,0.57
2023-04-14T12:44:23.293Z,0.57
2023-04-14T12:45:23.343Z,0.55
2023-04-14T12:46:23.372Z,0.55
2023-04-14T12:47:23.355Z,0.54
2023-04-14T12:48:23.267Z,0.54
2023-04-14T12:49:23.274Z,0.52
2023-04-14T12:50:23.261Z,0.51
2023-04-14T12:51:23.248Z,0.51
2023-04-14T12:52:23.238Z,0.51
2023-04-14T12:53:23.230Z,0.51
2023-04-14T12:54:23.231Z,0.52
2023-04-14T12:55:23.222Z,0.52
2023-04-14T12:56:23.219Z,0.52
2023-04-14T12:57:23.213Z,0.51
2023-04-14T12:58:23.228Z,0.50
2023-04-14T12:59:23.186Z,0.53
2023-04-14T13:00:23.206Z,0.53
2023-04-14T13:01:23.214Z,0.55
2023-04-14T13:02:23.585Z,0.53
2023-04-14T13:03:23.350Z,0.52
2023-04-14T13:04:23.231Z,0.54
2023-04-14T13:05:23.185Z,0.54
2023-04-14T13:06:23.180Z,0.55
2023-04-14T13:07:23.164Z,0.55
2023-04-14T13:08:23.130Z,0.54
2023-04-14T13:09:23.113Z,0.53
2023-04-14T13:10:23.107Z,0.54
2023-04-14T13:11:23.103Z,0.55
2023-04-14T13:12:23.108Z,0.55
2023-04-14T13:13:23.084Z,0.55
2023-04-14T13:14:23.076Z,0.55
2023-04-14T13:16:12.393Z,0.55
2023-04-14T13:16:26.526Z,0.55
2023-04-14T13:17:23.151Z,0.55
2023-04-14T13:18:23.075Z,0.55
2023-04-14T13:19:23.049Z,0.56
2023-04-14T13:20:23.037Z,0.56
2023-04-14T13:21:23.028Z,0.57
2023-04-14T13:22:23.024Z,0.56
2023-04-14T13:23:23.088Z,0.55
2023-04-14T13:24:23.003Z,0.55
2023-04-14T13:25:23.008Z,0.55
2023-04-14T13:26:23.006Z,0.55
2023-04-14T13:27:22.996Z,0.56
2023-04-14T13:28:22.977Z,0.56
2023-04-14T13:29:22.980Z,0.56
2023-04-14T13:30:23.008Z,0.55
2023-04-14T13:31:23.074Z,0.55
2023-04-14T13:32:22.964Z,0.57
2023-04-14T13:33:22.948Z,0.55
2023-04-14T13:34:22.956Z,0.56
2023-04-14T13:35:22.945Z,0.55
2023-04-14T13:36:22.929Z,0.54
2023-04-14T13:37:22.924Z,0.56
2023-04-14T13:38:22.915Z,0.56
2023-04-14T13:39:22.988Z,0.56
2023-04-14T13:40:22.899Z,0.54
2023-04-14T13:41:22.911Z,0.56
2023-04-14T13:42:22.896Z,0.55
2023-04-14T13:43:22.878Z,0.55
2023-04-14T13:44:22.875Z,0.55
2023-04-14T13:45:22.887Z,0.57
2023-04-14T13:46:22.876Z,0.55
2023-04-14T13:47:22.934Z,0.56
2023-04-14T13:48:22.906Z,0.55
2023-04-14T13:49:22.959Z,0.54
2023-04-14T13:50:22.975Z,0.55
2023-04-14T13:51:23.012Z,0.55
2023-04-14T13:52:23.049Z,0.54
2023-04-14T13:53:23.104Z,0.54
2023-04-14T13:54:23.137Z,0.55
2023-04-14T13:55:23.163Z,0.54
2023-04-14T13:56:23.202Z,0.55
2023-04-14T13:57:23.250Z,0.54
2023-04-14T13:58:23.455Z,0.54
2023-04-14T13:59:23.310Z,0.55
2023-04-14T14:00:23.382Z,0.55
2023-04-14T14:01:23.399Z,0.55
2023-04-14T14:02:23.483Z,0.57
2023-04-14T14:03:23.672Z,0.56
2023-04-14T14:04:23.548Z,0.56
2023-04-14T14:05:23.516Z,0.56
2023-04-14T14:06:23.560Z,0.55
2023-04-14T14:07:23.584Z,0.54
2023-04-14T14:08:23.618Z,0.55
2023-04-14T14:09:23.661Z,0.55
2023-04-14T14:10:23.699Z,0.55
2023-04-14T14:11:23.744Z,0.56
2023-04-14T14:12:23.793Z,0.56
2023-04-14T14:13:23.839Z,0.55
2023-04-14T14:14:23.878Z,0.56
2023-04-14T14:15:23.916Z,0.55
2023-04-14T14:16:36.002Z,0.55
2023-04-14T14:17:25.000Z,0.55
2023-04-14T14:18:23.980Z,0.55
2023-04-14T14:19:23.961Z,0.55
2023-04-14T14:20:23.951Z,0.55
2023-04-14T14:21:23.927Z,0.55
2023-04-14T14:22:23.915Z,0.55
2023-04-14T14:23:23.924Z,0.55
2023-04-14T14:24:23.914Z,0.55
2023-04-14T14:25:23.949Z,0.54
2023-04-14T14:26:23.897Z,0.55
2023-04-14T14:27:24.456Z,0.55
2023-04-14T14:28:23.975Z,0.53
2023-04-14T14:29:24.012Z,0.54
2023-04-14T14:30:24.061Z,0.54
2023-04-14T14:31:24.284Z,0.53
2023-04-14T14:32:24.179Z,0.54
2023-04-14T14:33:24.213Z,0.53
2023-04-14T14:34:24.307Z,0.52
2023-04-14T14:35:24.297Z,0.52
2023-04-14T14:36:24.431Z,0.51
2023-04-14T14:37:24.406Z,0.51
2023-04-14T14:38:24.467Z,0.52
2023-04-14T14:39:24.489Z,0.51
2023-04-14T14:40:24.543Z,0.51
2023-04-14T14:41:24.598Z,0.51
2023-04-14T14:42:24.634Z,0.51
2023-04-14T14:43:24.708Z,0.52
2023-04-14T14:44:24.787Z,0.51
2023-04-14T14:45:26.234Z,0.50
2023-04-14T14:46:25.812Z,0.50
2023-04-14T14:47:24.806Z,0.50
2023-04-14T14:48:24.809Z,0.51
2023-04-14T14:49:24.736Z,0.50
2023-04-14T14:50:24.737Z,0.51
2023-04-14T14:51:25.488Z,0.50
2023-04-14T14:52:24.714Z,0.50
2023-04-14T14:53:24.662Z,0.51
2023-04-14T14:54:24.661Z,0.51
2023-04-14T14:55:24.687Z,0.50
2023-04-14T14:56:24.731Z,0.51
2023-04-14T14:57:24.792Z,0.51
2023-04-14T14:58:24.923Z,0.51
2023-04-14T14:59:24.885Z,0.50
2023-04-14T15:00:24.928Z,0.52
2023-04-14T15:01:25.001Z,0.51
2023-04-14T15:02:25.158Z,0.51
2023-04-14T15:03:25.199Z,0.51
2023-04-14T15:04:25.207Z,0.51
2023-04-14T15:05:25.210Z,0.51
2023-04-14T15:06:25.230Z,0.51
2023-04-14T15:07:25.282Z,0.50
2023-04-14T15:08:25.337Z,0.51
2023-04-14T15:09:25.392Z,0.51
2023-04-14T15:10:25.464Z,0.53
2023-04-14T15:11:25.512Z,0.52
2023-04-14T15:12:25.574Z,0.54
2023-04-14T15:13:25.644Z,0.52
2023-04-14T15:14:25.712Z,0.53
2023-04-14T15:15:25.757Z,0.53
2023-04-14T15:16:25.841Z,0.53
2023-04-14T15:17:25.888Z,0.53
2023-04-14T15:18:26.882Z,0.54
2023-04-14T15:19:25.877Z,0.54
2023-04-14T15:20:25.870Z,0.53
2023-04-14T15:21:25.862Z,0.52
2023-04-14T15:22:26.483Z,0.52
2023-04-14T15:23:25.857Z,0.51
2023-04-14T15:24:25.862Z,0.52
2023-04-14T15:25:25.840Z,0.52
2023-04-14T15:26:25.883Z,0.53
2023-04-14T15:27:25.925Z,0.50
2023-04-14T15:28:25.983Z,0.51
2023-04-14T15:29:26.132Z,0.52
2023-04-14T15:30:26.841Z,0.53
2023-04-14T15:31:26.193Z,0.50
2023-04-14T15:32:26.237Z,0.50
2023-04-14T15:33:26.278Z,0.51
2023-04-14T15:34:26.330Z,0.51
2023-04-14T15:35:26.442Z,0.51
2023-04-14T15:36:26.445Z,0.52
2023-04-14T15:37:26.508Z,0.51
2023-04-14T15:38:26.581Z,0.50
2023-04-14T15:39:26.632Z,0.50
2023-04-14T15:40:26.761Z,0.51
2023-04-14T15:41:26.752Z,0.50
2023-04-14T15:42:26.794Z,0.51
2023-04-14T15:43:27.031Z,0.51
2023-04-14T15:44:26.959Z,0.51
2023-04-14T15:45:26.967Z,0.51
2023-04-14T15:46:27.071Z,0.52
2023-04-14T15:47:27.111Z,0.52
2023-04-14T15:48:27.136Z,0.52
2023-04-14T15:49:27.182Z,0.52
2023-04-14T15:50:27.243Z,0.50
2023-04-14T15:51:27.296Z,0.52
2023-04-14T15:52:27.372Z,0.52
2023-04-14T15:53:27.473Z,0.51
2023-04-14T15:54:27.470Z,0.52
2023-04-14T15:55:27.532Z,0.50
2023-04-14T15:56:27.642Z,0.51
2023-04-14T15:57:27.637Z,0.50
2023-04-14T15:58:27.686Z,0.51
2023-04-14T15:59:27.755Z,0.51
2023-04-14T16:00:27.809Z,0.51
2023-04-14T16:01:27.892Z,0.50
2023-04-14T16:02:28.056Z,0.51
2023-04-14T16:03:28.281Z,0.51
2023-04-14T16:04:28.323Z,0.50
2023-04-14T16:05:29.068Z,0.51
2023-04-14T16:06:28.158Z,0.51
2023-04-14T16:07:28.211Z,0.51
2023-04-14T16:08:28.267Z,0.52
2023-04-14T16:09:28.328Z,0.54
2023-04-14T16:10:28.395Z,0.53
2023-04-14T16:11:28.442Z,0.54
2023-04-14T16:12:28.573Z,0.53
2023-04-14T16:13:28.547Z,0.52
2023-04-14T16:14:28.577Z,0.52
2023-04-14T16:15:28.629Z,0.52
2023-04-14T16:16:28.712Z,0.51
2023-04-14T16:17:28.714Z,0.52
2023-04-14T16:18:28.777Z,0.52
2023-04-14T16:19:28.787Z,0.52
2023-04-14T16:20:28.829Z,0.52
2023-04-14T16:21:28.878Z,0.52
2023-04-14T16:22:28.916Z,0.52
2023-04-14T16:23:28.966Z,0.52
2023-04-14T16:24:29.018Z,0.52
2023-04-14T16:25:29.094Z,0.52
2023-04-14T16:26:29.095Z,0.52
2023-04-14T16:27:29.135Z,0.51
2023-04-14T16:28:29.254Z,0.52
2023-04-14T16:29:29.205Z,0.52
2023-04-14T16:30:29.247Z,0.52
2023-04-14T16:31:29.331Z,0.51
2023-04-14T16:32:29.430Z,0.52
2023-04-14T16:33:29.348Z,0.52
2023-04-14T16:34:29.373Z,0.52
2023-04-14T16:35:29.413Z,0.52
2023-04-14T16:36:29.438Z,0.51
2023-04-14T16:37:29.427Z,0.52
2023-04-14T16:38:29.458Z,0.52
2023-04-14T16:39:29.916Z,0.51
2023-04-14T16:40:29.457Z,0.51
2023-04-14T16:41:29.466Z,0.52
2023-04-14T16:42:29.476Z,0.51
2023-04-14T16:43:29.512Z,0.51
2023-04-14T16:44:29.541Z,0.51
2023-04-14T16:45:29.575Z,0.51
2023-04-14T16:46:29.658Z,0.51
2023-04-14T16:47:29.699Z,0.51
2023-04-14T16:48:29.675Z,0.50
2023-04-14T16:49:29.699Z,0.50
2023-04-14T16:50:29.743Z,0.52
2023-04-14T16:51:30.549Z,0.51
2023-04-14T16:52:29.829Z,0.51
2023-04-14T16:53:29.828Z,0.51
2023-04-14T16:54:29.834Z,0.51
2023-04-14T16:55:29.835Z,0.51
2023-04-14T16:56:29.839Z,0.51
2023-04-14T16:57:29.832Z,0.51
2023-04-14T16:58:29.843Z,0.50
2023-04-14T16:59:29.850Z,0.51
2023-04-14T17:00:29.848Z,0.51
2023-04-14T17:01:29.998Z,0.51
2023-04-14T17:02:30.066Z,0.51
2023-04-14T17:03:29.947Z,0.51
2023-04-14T17:04:29.919Z,0.51
2023-04-14T17:05:29.962Z,0.50
2023-04-14T17:06:29.857Z,0.51
2023-04-14T17:07:29.878Z,0.51
2023-04-14T17:08:29.872Z,0.50
2023-04-14T17:09:29.851Z,0.51
2023-04-14T17:10:29.861Z,0.51
2023-04-14T17:11:29.856Z,0.50
2023-04-14T17:12:29.869Z,0.50
2023-04-14T17:13:29.852Z,0.51
2023-04-14T17:14:29.846Z,0.51
2023-04-14T17:15:29.852Z,0.50
2023-04-14T17:16:29.876Z,0.51
2023-04-14T17:17:29.854Z,0.51
2023-04-14T17:18:29.854Z,0.51
2023-04-14T17:19:29.850Z,0.51
2023-04-14T17:20:29.852Z,0.50
2023-04-14T17:21:29.845Z,0.50
2023-04-14T17:22:29.846Z,0.51
2023-04-14T17:23:29.868Z,0.51
2023-04-14T17:24:29.849Z,0.51
2023-04-14T17:25:29.845Z,0.51
2023-04-14T17:26:29.848Z,0.51
2023-04-14T17:27:29.843Z,0.51
2023-04-14T17:28:29.854Z,0.51
2023-04-14T17:29:29.848Z,0.51
2023-04-14T17:30:29.860Z,0.50
2023-04-14T17:31:29.927Z,0.51
2023-04-14T17:32:29.897Z,0.50
2023-04-14T17:33:29.871Z,0.51
2023-04-14T17:34:29.937Z,0.50
2023-04-14T17:35:29.876Z,0.50
2023-04-14T17:36:29.882Z,0.50
2023-04-14T17:37:29.893Z,0.50
2023-04-14T17:38:29.883Z,0.50
2023-04-14T17:39:29.894Z,0.50
2023-04-14T17:40:29.900Z,0.51
2023-04-14T17:41:29.975Z,0.51
2023-04-14T17:42:29.920Z,0.50
2023-04-14T17:43:29.909Z,0.50
2023-04-14T17:44:29.922Z,0.50
2023-04-14T17:45:30.002Z,0.50
2023-04-14T17:46:29.937Z,0.50
2023-04-14T17:47:29.978Z,0.50
2023-04-14T17:48:29.962Z,0.51
2023-04-14T17:49:29.981Z,0.51
2023-04-14T17:50:29.979Z,0.50
2023-04-14T17:51:30.010Z,0.50
2023-04-14T17:52:30.001Z,0.50
2023-04-14T17:53:30.007Z,0.51
2023-04-14T17:54:30.012Z,0.51
2023-04-14T17:55:30.021Z,0.51
2023-04-14T17:56:30.020Z,0.51
2023-04-14T17:57:30.045Z,0.50
2023-04-14T17:58:30.059Z,0.50
2023-04-14T17:59:30.066Z,0.51
2023-04-14T18:00:30.058Z,0.50
2023-04-14T18:01:30.101Z,0.51
2023-04-14T18:02:30.155Z,0.51
2023-04-14T18:03:30.151Z,0.50
2023-04-14T18:04:30.553Z,0.50
2023-04-14T18:05:30.545Z,0.50
2023-04-14T18:06:30.130Z,0.51
2023-04-14T18:07:31.037Z,0.50
2023-04-14T18:08:30.150Z,0.50
2023-04-14T18:09:30.146Z,0.51
2023-04-14T18:10:30.184Z,0.50
2023-04-14T18:11:30.181Z,0.51
2023-04-14T18:12:30.224Z,0.51
2023-04-14T18:13:30.316Z,0.50
2023-04-14T18:14:30.239Z,0.51
2023-04-14T18:15:30.259Z,0.50
2023-04-14T18:16:30.287Z,0.50
2023-04-14T18:17:30.313Z,0.51
2023-04-14T18:18:30.313Z,0.52
2023-04-14T18:19:30.325Z,0.52
2023-04-14T18:20:30.325Z,0.50
2023-04-14T18:21:30.425Z,0.50
2023-04-14T18:22:30.371Z,0.50
2023-04-14T18:23:30.394Z,0.50
2023-04-14T18:26:26.423Z,0.51
2023-04-14T18:26:31.385Z,0.51
2023-04-14T18:28:30.382Z,0.52
2023-04-14T18:29:30.368Z,0.53
2023-04-14T18:30:31.052Z,0.52
2023-04-14T18:31:30.435Z,0.52
2023-04-14T18:32:30.380Z,0.51
2023-04-14T18:33:30.334Z,0.50
2023-04-14T18:34:30.410Z,0.51
2023-04-14T18:35:30.327Z,0.51
2023-04-14T18:36:30.321Z,0.50
2023-04-14T18:37:30.302Z,0.50
2023-04-14T18:38:30.297Z,0.51
2023-04-14T18:39:30.301Z,0.51
2023-04-14T18:40:30.297Z,0.51
2023-04-14T18:41:31.078Z,0.50
2023-04-14T18:42:30.281Z,0.51
2023-04-14T18:43:30.287Z,0.50
2023-04-14T18:44:30.284Z,0.51
2023-04-14T18:45:30.254Z,0.51
2023-04-14T18:46:30.305Z,0.50
2023-04-14T18:47:30.261Z,0.50
2023-04-14T18:48:30.265Z,0.51
2023-04-14T18:49:30.245Z,0.50
2023-04-14T18:50:30.228Z,0.50
2023-04-14T18:51:30.216Z,0.51
2023-04-14T18:52:30.212Z,0.51
2023-04-14T18:53:30.217Z,0.50
2023-04-14T18:54:30.212Z,0.50
2023-04-14T18:55:35.658Z,0.50
2023-04-14T18:56:31.200Z,0.50
2023-04-14T18:57:30.182Z,0.50
2023-04-14T18:58:30.180Z,0.51
2023-04-14T18:59:30.170Z,0.51
2023-04-14T19:00:30.158Z,0.51
2023-04-14T19:01:30.176Z,0.50
2023-04-14T19:02:30.234Z,0.50
2023-04-14T19:03:30.278Z,0.51
2023-04-14T19:04:30.168Z,0.50
2023-04-14T19:05:30.118Z,0.50
2023-04-14T19:06:30.112Z,0.50
2023-04-14T19:07:30.101Z,0.51
2023-04-14T19:08:30.177Z,0.50
2023-04-14T19:09:30.110Z,0.50
2023-04-14T19:10:30.096Z,0.50
2023-04-14T19:11:30.083Z,0.51
2023-04-14T19:12:30.081Z,0.51
2023-04-14T19:13:30.071Z,0.50
2023-04-14T19:14:30.064Z,0.51
2023-04-14T19:15:30.063Z,0.50
2023-04-14T19:16:30.192Z,0.51
2023-04-14T19:17:30.585Z,0.51
2023-04-14T19:18:30.119Z,0.50
2023-04-14T19:19:30.137Z,0.50
2023-04-14T19:20:30.164Z,0.50
2023-04-14T19:21:30.185Z,0.50
2023-04-14T19:22:30.218Z,0.50
2023-04-14T19:23:30.248Z,0.50
2023-04-14T19:24:30.264Z,0.50
2023-04-14T19:25:30.307Z,0.50
2023-04-14T19:26:30.325Z,0.51
2023-04-14T19:27:30.344Z,0.50
2023-04-14T19:28:30.361Z,0.51
2023-04-14T19:29:30.391Z,0.51
2023-04-14T19:30:30.588Z,0.50
2023-04-14T19:31:31.114Z,0.51
2023-04-14T19:32:30.490Z,0.51
2023-04-14T19:33:30.522Z,0.51
2023-04-14T19:34:30.548Z,0.51
2023-04-14T19:35:30.580Z,0.51
2023-04-14T19:36:30.612Z,0.51
2023-04-14T19:37:30.656Z,0.51
2023-04-14T19:38:30.678Z,0.51
2023-04-14T19:39:30.709Z,0.51
2023-04-14T19:40:30.729Z,0.51
2023-04-14T19:41:30.752Z,0.51
2023-04-14T19:42:30.794Z,0.50
2023-04-14T19:43:30.808Z,0.50
2023-04-14T19:44:30.828Z,0.51
2023-04-14T19:45:30.874Z,0.51
2023-04-14T19:46:30.951Z,0.50
2023-04-14T19:47:30.961Z,0.50
2023-04-14T19:48:30.992Z,0.51
2023-04-14T19:49:30.975Z,0.50
2023-04-14T19:50:30.993Z,0.51
2023-04-14T19:51:31.015Z,0.51
2023-04-14T19:52:31.041Z,0.51
2023-04-14T19:53:31.083Z,0.51
2023-04-14T19:54:31.101Z,0.50
2023-04-14T19:55:31.154Z,0.50
2023-04-14T19:56:31.163Z,0.50
2023-04-14T19:57:31.182Z,0.51
2023-04-14T19:58:31.230Z,0.50
2023-04-14T19:59:31.245Z,0.50
2023-04-14T20:00:31.281Z,0.51
2023-04-14T20:01:31.357Z,0.50
2023-04-14T20:02:31.477Z,0.50
2023-04-14T20:03:34.428Z,0.50
2023-04-14T20:04:31.401Z,0.51
2023-04-14T20:05:31.333Z,0.51
2023-04-14T20:06:31.334Z,0.51
2023-04-14T20:07:31.328Z,0.51
2023-04-14T20:08:31.320Z,0.50
2023-04-14T20:09:31.318Z,0.50
2023-04-14T20:10:31.305Z,0.50
2023-04-14T20:11:31.305Z,0.50
2023-04-14T20:12:31.289Z,0.51
2023-04-14T20:13:31.350Z,0.51
2023-04-14T20:14:31.274Z,0.50
2023-04-14T20:15:31.261Z,0.51
2023-04-14T20:16:31.321Z,0.51
2023-04-14T20:17:31.328Z,0.51
2023-04-14T20:18:31.253Z,0.51
2023-04-14T20:19:31.241Z,0.50
2023-04-14T20:20:31.242Z,0.51
2023-04-14T20:21:31.230Z,0.51
2023-04-14T20:22:31.223Z,0.51
2023-04-14T20:23:31.215Z,0.50
2023-04-14T20:24:31.216Z,0.51
2023-04-14T20:25:31.232Z,0.50
2023-04-14T20:26:31.196Z,0.51
2023-04-14T20:27:31.234Z,0.50
2023-04-14T20:28:31.195Z,0.51
2023-04-14T20:29:31.203Z,0.51
2023-04-14T20:30:31.216Z,0.51
2023-04-14T20:31:31.240Z,0.50
2023-04-14T20:32:31.181Z,0.51
2023-04-14T20:33:31.147Z,0.50
2023-04-14T20:34:31.146Z,0.51
2023-04-14T20:35:31.192Z,0.51
2023-04-14T20:36:31.127Z,0.50
2023-04-14T20:37:31.121Z,0.50
2023-04-14T20:38:31.113Z,0.50
2023-04-14T20:39:31.106Z,0.51
2023-04-14T20:40:31.093Z,0.51
2023-04-14T20:41:31.087Z,0.50
2023-04-14T20:42:31.085Z,0.51
2023-04-14T20:43:31.073Z,0.51
2023-04-14T20:44:31.100Z,0.50
2023-04-14T20:45:31.060Z,0.51
2023-04-14T20:46:31.086Z,0.50
2023-04-14T20:47:31.130Z,0.51
2023-04-14T20:48:31.044Z,0.51
2023-04-14T20:49:31.040Z,0.50
2023-04-14T20:50:31.023Z,0.51
2023-04-14T20:51:31.025Z,0.52
2023-04-14T20:52:31.024Z,0.51
2023-04-14T20:53:31.018Z,0.52
2023-04-14T20:54:30.998Z,0.52
2023-04-14T20:55:31.015Z,0.51
2023-04-14T20:56:31.075Z,0.52
2023-04-14T20:57:31.114Z,0.51
2023-04-14T20:58:31.151Z,0.51
2023-04-14T20:59:31.188Z,0.52
2023-04-14T21:00:34.052Z,0.51
2023-04-14T21:01:31.263Z,0.51
2023-04-14T21:02:31.321Z,0.52
2023-04-14T21:03:31.427Z,0.52
2023-04-14T21:04:31.246Z,0.51
2023-04-14T21:05:31.214Z,0.52
2023-04-14T21:06:32.957Z,0.51
2023-04-14T21:07:31.196Z,0.52
2023-04-14T21:08:32.123Z,0.51
2023-04-14T21:09:31.170Z,0.51
2023-04-14T21:10:32.038Z,0.50
2023-04-14T21:11:31.158Z,0.51
2023-04-14T21:12:35.628Z,0.50
2023-04-14T21:15:44.077Z,0.50
2023-04-14T21:15:44.848Z,0.50
2023-04-14T21:15:53.095Z,0.51
2023-04-14T21:16:32.199Z,0.51
2023-04-14T21:17:32.112Z,0.51
2023-04-14T21:18:31.120Z,0.51
2023-04-14T21:19:32.050Z,0.51
2023-04-14T21:20:31.107Z,0.50
2023-04-14T21:21:31.096Z,0.50
2023-04-14T21:22:31.089Z,0.50
2023-04-14T21:23:31.131Z,0.51
2023-04-14T21:24:31.064Z,0.50
2023-04-14T21:25:31.063Z,0.51
2023-04-14T21:26:31.058Z,0.51
2023-04-14T21:27:31.050Z,0.51
2023-04-14T21:28:31.045Z,0.51
2023-04-14T21:29:31.037Z,0.50
2023-04-14T21:30:31.024Z,0.51
2023-04-14T21:31:31.044Z,0.52
2023-04-14T21:32:31.073Z,0.51
2023-04-14T21:33:31.012Z,0.51
2023-04-14T21:34:31.005Z,0.51
2023-04-14T21:35:30.984Z,0.51
2023-04-14T21:36:30.989Z,0.51
2023-04-14T21:37:31.065Z,0.50
2023-04-14T21:38:31.625Z,0.52
2023-04-14T21:39:30.967Z,0.50
2023-04-14T21:40:30.972Z,0.51
2023-04-14T21:41:30.952Z,0.50
2023-04-14T21:42:30.948Z,0.50
2023-04-14T21:43:30.945Z,0.51
2023-04-14T21:44:30.964Z,0.51
2023-04-14T21:45:31.015Z,0.50
2023-04-14T21:46:31.040Z,0.50
2023-04-14T21:47:31.165Z,0.51
2023-04-14T21:48:31.137Z,0.52
2023-04-14T21:49:31.640Z,0.52
2023-04-14T21:50:33.130Z,0.52
2023-04-14T21:51:31.251Z,0.52
2023-04-14T21:52:31.308Z,0.51
2023-04-14T21:53:31.365Z,0.51
2023-04-14T21:54:31.391Z,0.52
2023-04-14T21:55:31.428Z,0.50
2023-04-14T21:56:31.467Z,0.51
2023-04-14T21:57:44.594Z,0.51
2023-04-14T21:58:32.582Z,0.51
2023-04-14T21:59:31.506Z,0.51
2023-04-14T22:00:31.487Z,0.51
2023-04-14T22:01:32.171Z,0.50
2023-04-14T22:02:31.753Z,0.50
2023-04-14T22:03:32.144Z,0.52
2023-04-14T22:04:36.638Z,0.52
2023-04-14T22:05:32.462Z,0.52
2023-04-14T22:06:31.453Z,0.52
2023-04-14T22:07:31.433Z,0.52
2023-04-14T22:08:32.141Z,0.52
2023-04-14T22:09:31.433Z,0.52
2023-04-14T22:10:31.445Z,0.51
2023-04-14T22:11:31.429Z,0.52
2023-04-14T22:12:31.423Z,0.50
2023-04-14T22:13:31.410Z,0.51
2023-04-14T22:14:31.417Z,0.51
2023-04-14T22:15:31.401Z,0.50
2023-04-14T22:16:31.420Z,0.50
2023-04-14T22:17:31.533Z,0.50
2023-04-14T22:18:31.453Z,0.50
2023-04-14T22:19:31.488Z,0.50
2023-04-14T22:20:31.518Z,0.50
2023-04-14T22:21:31.550Z,0.51
2023-04-14T22:22:31.589Z,0.51
2023-04-14T22:23:31.638Z,0.51
2023-04-14T22:24:31.699Z,0.50
2023-04-14T22:25:31.712Z,0.51
2023-04-14T22:26:31.761Z,0.51
2023-04-14T22:27:31.791Z,0.52
2023-04-14T22:28:31.843Z,0.51
2023-04-14T22:29:31.899Z,0.52
2023-04-14T22:30:31.906Z,0.51
2023-04-14T22:31:32.048Z,0.52
2023-04-14T22:32:32.074Z,0.51
2023-04-14T22:33:32.112Z,0.52
2023-04-14T22:34:32.070Z,0.50
2023-04-14T22:35:32.113Z,0.51
2023-04-14T22:36:32.151Z,0.51
2023-04-14T22:37:32.203Z,0.52
2023-04-14T22:38:32.228Z,0.50